Time;durP1;ratioP1;P1;durP2;ratioP2;P2;SDS_P1;SDS_P2;PMS_P1;PMS_P2;Temp;Humidity;BMP_temperature;BMP_pressure;BME280_temperature;BME280_humidity;BME280_pressure;Samples;Min_cycle;Max_cycle;Signal;HPM_P1;HPM_P2
2022/09/20 00:01:25;;;;;;;1.90;0.75;;;;;;;20.30;43.92;101157.81;1456354;98;21086;-52
2022/09/20 00:03:55;;;;;;;2.87;1.10;;;;;;;20.28;43.96;101161.84;1456417;98;21082;-55
2022/09/20 00:06:26;;;;;;;1.00;0.90;;;;;;;20.25;44.07;101167.31;1498430;95;21156;-55
2022/09/20 00:08:52;;;;;;;0.70;0.70;;;;;;;20.24;44.14;101164.27;1508013;95;21144;-54
2022/09/20 00:11:24;;;;;;;1.52;0.90;;;;;;;20.23;44.11;101158.62;1512486;95;21074;-58
2022/09/20 00:13:54;;;;;;;5.03;1.70;;;;;;;20.22;44.06;101156.89;1512248;95;21109;-56
2022/09/20 00:16:27;;;;;;;4.17;1.67;;;;;;;20.21;44.25;101153.89;1512472;95;21126;-56
2022/09/20 00:18:57;;;;;;;6.75;1.35;;;;;;;20.21;44.39;101155.20;1593341;89;21056;-56
2022/09/20 00:21:26;;;;;;;3.65;1.75;;;;;;;20.20;44.57;101162.73;1617862;89;21114;-52
2022/09/20 00:23:53;;;;;;;1.70;1.15;;;;;;;20.19;44.58;101168.94;1635751;88;21076;-54
2022/09/20 00:26:20;;;;;;;1.42;1.00;;;;;;;20.20;44.62;101170.20;1635600;88;21532;-53
2022/09/20 00:28:46;;;;;;;3.22;0.60;;;;;;;20.20;44.59;101170.20;1649176;87;21072;-52
2022/09/20 00:31:14;;;;;;;1.45;0.75;;;;;;;20.23;44.51;101170.51;1590847;90;21085;-54
2022/09/20 00:36:29;;;;;;;1.10;0.50;;;;;;;20.31;44.34;101163.47;1635593;88;21057;-53
2022/09/20 00:38:59;;;;;;;1.17;0.65;;;;;;;20.35;44.24;101166.33;1649030;87;21028;-59
2022/09/20 00:41:26;;;;;;;3.23;0.83;;;;;;;20.38;44.25;101163.53;1649247;87;21056;-54
2022/09/20 00:43:53;;;;;;;0.47;0.40;;;;;;;20.40;44.11;101158.55;1649027;87;21060;-55
2022/09/20 00:46:27;;;;;;;1.07;0.60;;;;;;;20.40;44.07;101146.66;1673820;86;21076;-52
2022/09/20 00:49:02;;;;;;;1.22;0.53;;;;;;;20.45;43.98;101156.48;1664643;86;21103;-52
2022/09/20 00:51:31;;;;;;;0.65;0.30;;;;;;;20.47;43.85;101147.13;1673791;84;21059;-53
2022/09/20 00:53:59;;;;;;;0.30;0.20;;;;;;;20.48;43.76;101141.78;1676503;86;21071;-55
2022/09/20 00:56:32;;;;;;;1.77;0.50;;;;;;;20.51;43.67;101134.98;1656839;86;21100;-53
2022/09/20 00:59:16;;;;;;;1.60;0.40;;;;;;;20.51;43.61;101125.73;1676133;86;21007;-53
2022/09/20 01:01:49;;;;;;;1.30;0.68;;;;;;;20.52;43.58;101119.52;1620475;88;21056;-53
2022/09/20 01:04:15;;;;;;;1.70;0.53;;;;;;;20.53;43.64;101109.31;1576076;90;21030;-58
2022/09/20 01:06:44;;;;;;;1.25;0.35;;;;;;;20.54;43.65;101104.42;1551181;92;21132;-54
2022/09/20 01:09:10;;;;;;;0.45;0.33;;;;;;;20.56;43.61;101111.80;1577105;90;21055;-53
2022/09/20 01:11:37;;;;;;;0.95;0.40;;;;;;;20.56;43.66;101105.19;1550970;92;21041;-53
2022/09/20 01:14:04;;;;;;;5.35;0.78;;;;;;;20.58;43.69;101105.09;1578573;90;21608;-52
2022/09/20 01:16:31;;;;;;;0.80;0.50;;;;;;;20.60;43.78;101110.67;1553911;92;21087;-52
2022/09/20 01:18:59;;;;;;;1.92;0.53;;;;;;;20.60;43.85;101104.06;1547167;90;21097;-55
2022/09/20 01:21:26;;;;;;;1.77;0.50;;;;;;;20.63;43.94;101113.12;1576646;90;21067;-52
2022/09/20 01:24:13;;;;;;;3.20;0.68;;;;;;;20.65;44.22;101107.28;1578281;90;21571;-52
2022/09/20 01:27:15;;;;;;;1.70;0.80;;;;;;;20.67;44.49;101112.01;1550294;92;21575;-54
2022/09/20 01:30:07;;;;;;;2.25;0.65;;;;;;;20.69;44.67;101107.48;1546016;93;21126;-53
2022/09/20 01:32:43;;;;;;;1.45;0.60;;;;;;;20.71;44.86;101100.31;1487552;96;21229;-53
2022/09/20 01:35:10;;;;;;;2.10;0.80;;;;;;;20.75;45.10;101103.16;1430615;99;21172;-52
2022/09/20 01:38:12;;;;;;;2.25;1.42;;;;;;;20.80;45.39;101106.86;1431151;100;21160;-57
2022/09/20 01:40:59;;;;;;;1.75;1.20;;;;;;;20.85;45.47;101105.67;1430888;100;21162;-52
2022/09/20 01:43:31;;;;;;;0.90;0.90;;;;;;;20.90;45.57;101108.03;1430622;100;21084;-58
2022/09/20 01:45:58;;;;;;;2.27;1.00;;;;;;;20.95;45.38;101105.52;1432009;99;21213;-57
2022/09/20 01:48:37;;;;;;;2.20;0.98;;;;;;;20.98;45.15;101107.96;1437422;99;21147;-54
2022/09/20 01:51:18;;;;;;;0.40;0.40;;;;;;;21.02;45.00;101107.33;1370004;104;21158;-53
2022/09/20 01:54:05;;;;;;;2.35;0.50;;;;;;;21.02;44.75;101102.91;1369956;104;21082;-53
2022/09/20 01:56:45;;;;;;;1.00;0.40;;;;;;;21.03;44.51;101094.50;1363959;104;21177;-57
2022/09/20 01:59:42;;;;;;;2.62;0.70;;;;;;;21.02;44.48;101093.64;1379619;104;21188;-53
2022/09/20 02:02:38;;;;;;;0.60;0.50;;;;;;;21.01;44.51;101087.95;1396785;102;21653;-50
2022/09/20 02:05:58;;;;;;;1.77;0.50;;;;;;;21.00;44.66;101084.91;1423384;100;21188;-56
2022/09/20 02:08:51;;;;;;;0.47;0.47;;;;;;;20.99;44.88;101099.09;1465307;97;21213;-55
2022/09/20 02:11:25;;;;;;;0.40;0.40;;;;;;;20.96;45.16;101092.65;1443913;99;21641;-53
2022/09/20 02:14:12;;;;;;;1.60;0.50;;;;;;;20.94;45.40;101087.92;1420773;100;21637;-51
2022/09/20 02:16:56;;;;;;;0.65;0.33;;;;;;;20.93;45.52;101094.17;1414239;100;21181;-54
2022/09/20 02:19:49;;;;;;;9.08;0.50;;;;;;;20.92;45.73;101091.59;1401173;100;21117;-54
2022/09/20 02:22:42;;;;;;;1.67;0.60;;;;;;;20.91;46.02;101084.16;1380763;102;21124;-55
2022/09/20 02:25:56;;;;;;;2.25;1.10;;;;;;;20.92;46.41;101084.52;1375209;103;21208;-53
2022/09/20 02:28:52;;;;;;;1.75;0.70;;;;;;;20.95;46.76;101102.88;1343641;105;21155;-54
2022/09/20 02:31:57;;;;;;;0.65;0.47;;;;;;;20.97;47.14;101114.21;1316141;108;21178;-57
2022/09/20 02:35:09;;;;;;;1.60;0.70;;;;;;;20.98;46.97;101118.55;1300950;109;21192;-51
2022/09/20 02:38:19;;;;;;;3.72;0.90;;;;;;;20.97;47.62;101127.44;1328133;108;21636;-51
2022/09/20 02:41:16;;;;;;;0.30;0.30;;;;;;;20.93;47.90;101119.30;1346152;107;21197;-53
2022/09/20 02:43:55;;;;;;;2.50;0.57;;;;;;;20.86;47.08;101091.95;1355948;104;21134;-53
2022/09/20 02:46:33;;;;;;;1.10;0.45;;;;;;;20.79;47.10;101094.10;1346865;104;21222;-59
2022/09/20 02:49:14;;;;;;;2.10;0.47;;;;;;;20.71;47.75;101076.52;1351767;105;21249;-52
2022/09/20 02:51:57;;;;;;;2.15;0.65;;;;;;;20.68;48.75;101075.84;1351669;105;21740;-52
2022/09/20 02:54:38;;;;;;;0.93;0.60;;;;;;;20.65;49.19;101074.23;1351682;105;21184;-56
2022/09/20 02:57:45;;;;;;;1.67;0.60;;;;;;;20.64;49.56;101062.42;1351686;105;21164;-57
2022/09/20 03:00:17;;;;;;;0.30;0.30;;;;;;;20.65;49.91;101061.01;1346510;104;21155;-55
2022/09/20 03:03:14;;;;;;;0.68;0.50;;;;;;;20.65;50.09;101057.04;1366408;103;21122;-51
2022/09/20 03:06:07;;;;;;;6.42;0.82;;;;;;;20.63;50.17;101050.16;1407991;102;21119;-54
2022/09/20 03:08:48;;;;;;;1.35;0.42;;;;;;;20.62;50.31;101045.34;1427909;100;21077;-51
2022/09/20 03:11:32;;;;;;;1.62;0.50;;;;;;;20.61;50.20;101063.45;1433747;100;21081;-51
2022/09/20 03:14:21;;;;;;;0.70;0.60;;;;;;;20.63;49.87;101047.52;1445918;99;21630;-53
2022/09/20 03:17:29;;;;;;;0.60;0.40;;;;;;;20.63;50.01;101048.34;1452082;98;21112;-57
2022/09/20 03:20:32;;;;;;;1.25;0.50;;;;;;;20.62;50.14;101041.38;1460337;97;21110;-50
2022/09/20 03:23:16;;;;;;;0.93;0.47;;;;;;;20.58;50.26;101041.17;1577976;91;21040;-54
2022/09/20 03:26:00;;;;;;;0.65;0.50;;;;;;;20.55;50.37;101040.02;1592962;90;21132;-54
2022/09/20 03:28:42;;;;;;;1.30;0.53;;;;;;;20.53;50.72;101047.19;1563716;92;21087;-52
2022/09/20 03:31:23;;;;;;;0.80;0.50;;;;;;;20.52;51.14;101045.50;1577428;91;21147;-51
2022/09/20 03:34:15;;;;;;;1.60;0.50;;;;;;;20.52;51.36;101043.31;1575134;91;21152;-57
2022/09/20 03:37:09;;;;;;;1.00;0.50;;;;;;;20.52;51.41;101048.14;1593128;90;21107;-55
2022/09/20 03:40:09;;;;;;;0.40;0.35;;;;;;;20.51;51.29;101049.06;1563029;92;21039;-60
2022/09/20 03:42:47;;;;;;;1.37;0.40;;;;;;;20.51;51.22;101053.49;1577690;90;21179;-53
2022/09/20 03:45:47;;;;;;;2.02;0.60;;;;;;;20.49;51.35;101061.52;1573775;90;21663;-52
2022/09/20 03:48:57;;;;;;;0.85;0.60;;;;;;;20.49;51.24;101056.70;1561576;91;21074;-56
2022/09/20 03:51:59;;;;;;;0.65;0.42;;;;;;;20.50;51.04;101052.66;1559941;91;21728;-55
2022/09/20 03:54:58;;;;;;;;;;;;;;;20.50;51.47;101052.66;1545087;92;21129;-60
2022/09/20 03:57:47;;;;;;;0.40;0.40;;;;;;;20.48;51.53;101049.72;1549335;92;20116;-53
2022/09/20 04:00:22;;;;;;;0.40;0.40;;;;;;;20.45;51.71;101060.00;1579661;90;21071;-53
2022/09/20 04:03:03;;;;;;;0.45;0.30;;;;;;;20.39;51.70;101060.34;1599904;88;21034;-55
2022/09/20 04:05:48;;;;;;;1.52;0.90;;;;;;;20.36;51.95;101063.16;1600218;90;21067;-57
2022/09/20 04:08:55;;;;;;;0.60;0.40;;;;;;;20.34;52.16;101062.39;1570715;91;21090;-53
2022/09/20 04:11:50;;;;;;;0.68;0.40;;;;;;;20.35;51.97;101064.11;1573474;91;21073;-55
2022/09/20 04:14:41;;;;;;;0.80;0.50;;;;;;;20.37;52.16;101067.98;1573888;91;21077;-54
2022/09/20 04:17:34;;;;;;;1.75;0.60;;;;;;;20.37;52.25;101071.94;1562550;91;21584;-55
2022/09/20 04:20:19;;;;;;;2.08;0.70;;;;;;;20.36;51.87;101081.66;1572153;91;21562;-52
2022/09/20 04:22:46;;;;;;;2.50;0.53;;;;;;;20.35;51.84;101088.36;1573018;91;21038;-56
2022/09/20 04:25:26;;;;;;;2.95;0.70;;;;;;;20.35;52.01;101101.11;1615758;89;21092;-55
2022/09/20 04:28:04;;;;;;;1.15;0.65;;;;;;;20.35;52.40;101094.50;1601968;89;21073;-55
2022/09/20 04:30:36;;;;;;;4.08;0.53;;;;;;;20.37;52.26;101095.73;1546395;93;21125;-55
2022/09/20 04:33:16;;;;;;;2.17;0.68;;;;;;;20.37;52.15;101097.91;1546542;93;21103;-55
2022/09/20 04:39:30;;;;;;;0.78;0.65;;;;;;;20.38;52.63;101110.17;1513079;94;21036;-55
2022/09/20 04:42:33;;;;;;;1.10;0.68;;;;;;;20.41;52.89;101118.41;1513528;94;21119;-55
2022/09/20 04:45:27;;;;;;;1.80;0.60;;;;;;;20.47;52.51;101120.70;1515509;94;21172;-52
2022/09/20 04:48:22;;;;;;;1.15;0.72;;;;;;;20.51;51.31;101121.77;1515315;94;21070;-54
2022/09/20 04:51:30;;;;;;;1.70;0.85;;;;;;;20.54;51.07;101121.61;1517043;93;21087;-59
2022/09/20 04:54:20;;;;;;;0.82;0.60;;;;;;;20.58;50.49;101124.45;1504201;94;21063;-51
2022/09/20 04:56:58;;;;;;;0.72;0.70;;;;;;;20.60;49.54;101127.00;1506127;93;21043;-53
2022/09/20 05:00:04;;;;;;;1.22;0.98;;;;;;;20.62;49.25;101125.98;1514881;94;21055;-52
2022/09/20 05:03:19;;;;;;;0.75;0.60;;;;;;;20.60;48.17;101125.68;1515310;94;21117;-51
2022/09/20 05:06:14;;;;;;;0.70;0.53;;;;;;;20.58;48.71;101128.88;1518491;94;21158;-53
2022/09/20 05:08:52;;;;;;;1.67;0.60;;;;;;;20.62;48.13;101135.23;1495106;95;21111;-53
2022/09/20 05:11:35;;;;;;;1.62;0.68;;;;;;;20.66;48.16;101132.80;1494908;95;21135;-53
2022/09/20 05:14:43;;;;;;;1.90;0.60;;;;;;;20.69;47.96;101136.58;1515564;94;21591;-53
2022/09/20 05:17:34;;;;;;;1.37;0.80;;;;;;;20.70;47.94;101139.61;1486736;95;21592;-58
2022/09/20 05:20:40;;;;;;;0.78;0.62;;;;;;;20.70;47.79;101149.33;1496457;94;21697;-55
2022/09/20 05:23:21;;;;;;;2.45;0.90;;;;;;;20.64;47.91;101145.26;1507418;94;21599;-57
2022/09/20 05:25:57;;;;;;;2.67;0.70;;;;;;;20.57;48.06;101149.17;1507319;94;21103;-55
2022/09/20 05:29:05;;;;;;;3.20;0.82;;;;;;;20.55;48.28;101152.37;1520232;94;21087;-53
2022/09/20 05:31:45;;;;;;;2.20;0.90;;;;;;;20.53;48.41;101154.72;1540727;93;21635;-51
2022/09/20 05:34:41;;;;;;;0.80;0.65;;;;;;;20.52;48.74;101163.14;1540061;92;21125;-57
2022/09/20 05:38:04;;;;;;;2.47;0.60;;;;;;;20.53;48.73;101155.58;1540963;92;21659;-55
2022/09/20 05:41:03;;;;;;;1.98;0.90;;;;;;;20.54;48.79;101145.86;1556081;92;21121;-53
2022/09/20 05:43:31;;;;;;;1.12;0.80;;;;;;;20.52;48.39;101145.95;1536308;93;21098;-52
2022/09/20 05:46:06;;;;;;;1.17;0.90;;;;;;;20.47;48.54;101140.06;1536323;93;21744;-53
2022/09/20 05:49:05;;;;;;;2.75;1.22;;;;;;;20.43;48.88;101137.21;1536411;93;21112;-53
2022/09/20 05:51:46;;;;;;;1.80;0.90;;;;;;;20.39;48.80;101139.64;1507444;95;21115;-53
2022/09/20 05:54:36;;;;;;;0.80;0.72;;;;;;;20.37;49.17;101141.52;1507601;94;21152;-52
2022/09/20 05:57:23;;;;;;;2.08;1.02;;;;;;;20.38;49.37;101140.56;1507706;95;21146;-53
2022/09/20 06:00:18;;;;;;;1.42;0.98;;;;;;;20.38;49.21;101140.56;1504641;95;21136;-53
2022/09/20 06:03:24;;;;;;;1.35;1.10;;;;;;;20.35;49.45;101134.61;1485882;96;21090;-51
2022/09/20 06:06:13;;;;;;;4.20;1.30;;;;;;;20.24;49.65;101135.20;1527810;93;21077;-54
2022/09/20 06:09:09;;;;;;;2.47;1.17;;;;;;;20.12;49.94;101133.20;1526481;94;21112;-52
2022/09/20 06:12:00;;;;;;;1.25;1.10;;;;;;;20.02;50.07;101142.58;1511896;95;21155;-51
2022/09/20 06:15:10;;;;;;;1.62;1.10;;;;;;;19.93;49.94;101137.32;1476116;96;21639;-52
2022/09/20 06:18:00;;;;;;;2.12;1.17;;;;;;;19.85;50.32;101143.95;1491909;95;21581;-53
2022/09/20 06:21:12;;;;;;;1.30;1.10;;;;;;;19.74;50.32;101141.05;1508907;95;21546;-55
2022/09/20 06:23:38;;;;;;;1.50;1.10;;;;;;;19.67;50.69;101137.02;1541769;92;21077;-51
2022/09/20 06:26:18;;;;;;;1.62;1.40;;;;;;;19.66;50.88;101139.28;1528573;93;21101;-53
2022/09/20 06:28:48;;;;;;;1.82;1.17;;;;;;;19.63;50.71;101142.08;1544596;91;21101;-51
2022/09/20 06:31:17;;;;;;;1.40;1.20;;;;;;;19.59;50.92;101146.67;1543489;92;21121;-50
2022/09/20 06:33:49;;;;;;;2.35;1.72;;;;;;;19.54;51.05;101148.69;1549219;92;21070;-53
2022/09/20 06:42:28;;;;;;;1.40;1.30;;;;;;;19.47;51.03;101157.88;1428205;100;21160;-54
2022/09/20 06:44:54;;;;;;;5.65;2.20;;;;;;;19.45;51.09;101157.93;1447377;99;21591;-52
2022/09/20 06:49:50;;;;;;;5.83;3.20;;;;;;;19.49;51.47;101162.11;1433097;100;21078;-55
2022/09/20 06:52:19;;;;;;;5.00;3.25;;;;;;;19.56;51.54;101164.47;1433750;99;21094;-56
2022/09/20 06:54:47;;;;;;;4.47;2.40;;;;;;;19.62;51.64;101161.50;1433816;99;21081;-57
2022/09/20 06:57:17;;;;;;;2.10;1.77;;;;;;;19.71;51.85;101162.32;1428699;99;21130;-52
2022/09/20 06:59:44;;;;;;;1.72;1.57;;;;;;;19.85;51.28;101165.08;1405180;102;21665;-52
2022/09/20 07:02:10;;;;;;;2.83;1.60;;;;;;;19.98;50.69;101164.81;1371929;104;21068;-52
2022/09/20 07:04:37;;;;;;;2.50;1.87;;;;;;;20.07;50.07;101170.94;1390697;102;21557;-53
2022/09/20 07:07:06;;;;;;;2.72;1.80;;;;;;;20.12;49.56;101167.55;1405244;102;21140;-52
2022/09/20 07:09:33;;;;;;;2.02;1.25;;;;;;;20.15;48.93;101172.69;1406997;101;21065;-52
2022/09/20 07:12:00;;;;;;;2.05;1.35;;;;;;;20.16;48.46;101173.05;1387408;103;21175;-53
2022/09/20 07:14:28;;;;;;;1.32;0.90;;;;;;;20.18;48.35;101175.14;1385642;103;21109;-52
2022/09/20 07:16:55;;;;;;;1.82;0.82;;;;;;;20.19;47.82;101175.55;1408167;101;21177;-56
2022/09/20 07:19:22;;;;;;;1.20;0.78;;;;;;;20.18;47.45;101180.43;1413839;101;21332;-52
2022/09/20 07:21:49;;;;;;;1.05;0.80;;;;;;;20.16;47.39;101182.30;1393394;102;21193;-51
2022/09/20 07:24:16;;;;;;;2.22;0.70;;;;;;;20.17;47.47;101174.28;1441800;99;21222;-60
2022/09/20 07:27:04;;;;;;;0.40;0.40;;;;;;;20.21;47.69;101177.67;1440823;99;21144;-53
2022/09/20 07:29:30;;;;;;;1.27;0.70;;;;;;;20.25;47.02;101184.48;1386017;103;21429;-54
2022/09/20 07:31:57;;;;;;;0.75;0.68;;;;;;;20.30;46.57;101178.47;1427391;98;21158;-54
2022/09/20 07:34:24;;;;;;;0.70;0.60;;;;;;;20.37;46.47;101178.52;1509560;95;21044;-51
2022/09/20 07:36:51;;;;;;;2.10;0.70;;;;;;;20.46;46.61;101183.31;1513218;95;21127;-51
2022/09/20 07:39:18;;;;;;;1.98;0.70;;;;;;;20.52;46.53;101192.22;1514343;95;21036;-51
2022/09/20 07:41:47;;;;;;;0.88;0.75;;;;;;;20.56;46.52;101195.54;1513555;95;21119;-55
2022/09/20 07:44:20;;;;;;;1.20;0.82;;;;;;;20.59;46.23;101190.92;1514532;95;21650;-54
2022/09/20 07:46:51;;;;;;;2.80;0.80;;;;;;;20.60;45.96;101203.69;1546649;90;21648;-53
2022/09/20 07:49:19;;;;;;;1.25;1.15;;;;;;;20.58;46.28;101201.12;1592223;89;21564;-52
2022/09/20 07:51:46;;;;;;;1.95;0.93;;;;;;;20.56;46.39;101192.89;1591862;90;21075;-52
2022/09/20 07:54:12;;;;;;;1.37;0.90;;;;;;;20.55;46.68;101198.64;1590680;89;21131;-54
2022/09/20 07:56:39;;;;;;;2.05;0.80;;;;;;;20.54;46.86;101196.09;1619444;87;21688;-51
2022/09/20 07:59:06;;;;;;;0.60;0.55;;;;;;;20.52;46.70;101200.16;1640616;87;21121;-54
2022/09/20 08:01:33;;;;;;;1.37;0.60;;;;;;;20.47;46.75;101196.90;1650287;85;21121;-53
2022/09/20 08:04:01;;;;;;;2.02;0.85;;;;;;;20.43;46.72;101195.36;1590277;89;21512;-55
2022/09/20 08:06:28;;;;;;;1.60;0.82;;;;;;;20.39;46.27;101196.47;1640764;87;21601;-53
2022/09/20 08:08:54;;;;;;;0.68;0.60;;;;;;;20.36;46.32;101200.59;1637853;87;21064;-59
2022/09/20 08:11:28;;;;;;;0.68;0.68;;;;;;;20.32;46.27;101196.41;1640781;87;21069;-53
2022/09/20 08:13:55;;;;;;;0.55;0.45;;;;;;;20.31;46.27;101200.01;1639815;86;21094;-52
2022/09/20 08:16:22;;;;;;;1.45;0.80;;;;;;;20.31;46.80;101205.30;1644393;86;21589;-54
2022/09/20 08:19:00;;;;;;;1.12;0.68;;;;;;;20.34;46.66;101197.18;1640570;86;21054;-51
2022/09/20 08:21:30;;;;;;;0.60;0.45;;;;;;;20.38;46.63;101198.72;1640665;87;21026;-52
2022/09/20 08:23:57;;;;;;;0.65;0.65;;;;;;;20.46;46.42;101203.14;1653311;84;21019;-54
2022/09/20 08:26:26;;;;;;;0.53;0.53;;;;;;;20.55;45.48;101205.72;1669248;84;21079;-53
2022/09/20 08:28:55;;;;;;;0.50;0.50;;;;;;;20.60;45.02;101207.19;1670237;84;21025;-56
2022/09/20 08:31:26;;;;;;;0.60;0.50;;;;;;;20.64;44.95;101207.86;1671703;84;21090;-52
2022/09/20 08:33:53;;;;;;;0.60;0.60;;;;;;;20.65;44.79;101213.05;1664983;84;21021;-52
2022/09/20 08:36:23;;;;;;;2.22;0.60;;;;;;;20.67;44.53;101207.70;1670276;84;21052;-51
2022/09/20 08:38:51;;;;;;;0.82;0.40;;;;;;;20.67;44.80;101208.53;1671338;86;21011;-51
2022/09/20 08:41:40;;;;;;;0.50;0.50;;;;;;;20.69;44.08;101209.30;1669796;84;21061;-58
2022/09/20 08:44:17;;;;;;;0.33;0.33;;;;;;;20.70;43.80;101204.41;1671336;84;21067;-54
2022/09/20 08:46:48;;;;;;;0.30;0.30;;;;;;;20.72;43.78;101208.28;1647905;86;21165;-51
2022/09/20 08:49:27;;;;;;;0.28;0.28;;;;;;;20.77;43.80;101204.42;1609303;89;21509;-52
2022/09/20 08:51:56;;;;;;;0.40;0.40;;;;;;;20.83;43.55;101201.46;1591910;89;21132;-55
2022/09/20 08:54:25;;;;;;;1.85;0.60;;;;;;;20.90;43.64;101208.09;1581852;90;21093;-52
2022/09/20 08:56:52;;;;;;;2.50;0.50;;;;;;;20.92;42.93;101198.27;1545825;92;21109;-56
2022/09/20 08:59:21;;;;;;;0.57;0.40;;;;;;;20.95;42.89;101200.75;1554640;92;21100;-56
2022/09/20 09:01:48;;;;;;;0.72;0.40;;;;;;;20.96;42.66;101201.12;1576379;90;21632;-54
2022/09/20 09:04:20;;;;;;;0.30;0.30;;;;;;;21.00;42.27;101193.39;1551438;91;21168;-56
2022/09/20 09:06:47;;;;;;;0.50;0.30;;;;;;;21.05;41.52;101194.48;1566223;89;21067;-53
2022/09/20 09:09:26;;;;;;;0.30;0.30;;;;;;;21.06;41.42;101193.06;1594557;89;21021;-58
2022/09/20 09:11:55;;;;;;;0.45;0.30;;;;;;;21.13;41.78;101192.70;1570890;91;21131;-54
2022/09/20 09:14:48;;;;;;;1.10;0.28;;;;;;;21.19;41.42;101194.98;1571111;91;21177;-55
2022/09/20 09:17:26;;;;;;;0.30;0.20;;;;;;;21.24;41.20;101202.20;1570768;91;21139;-52
2022/09/20 09:20:15;;;;;;;0.50;0.50;;;;;;;21.27;40.81;101192.77;1569161;91;21157;-56
2022/09/20 09:22:44;;;;;;;0.65;0.30;;;;;;;21.26;40.70;101201.18;1568488;91;21116;-55
2022/09/20 09:25:24;;;;;;;0.47;0.40;;;;;;;21.28;40.78;101201.08;1503643;95;21139;-51
2022/09/20 09:27:57;;;;;;;0.53;0.33;;;;;;;21.31;40.63;101196.45;1558278;91;21550;-53
2022/09/20 09:30:36;;;;;;;0.30;0.30;;;;;;;21.35;40.24;101199.30;1517360;92;21156;-52
2022/09/20 09:33:23;;;;;;;0.33;0.30;;;;;;;21.42;40.20;101202.44;1545820;91;21090;-55
2022/09/20 09:36:06;;;;;;;0.40;0.40;;;;;;;21.48;39.54;101194.13;1526435;92;21615;-55
2022/09/20 09:38:37;;;;;;;0.23;0.23;;;;;;;21.52;39.96;101202.27;1504137;94;21075;-54
2022/09/20 09:41:25;;;;;;;0.20;0.20;;;;;;;21.60;39.57;101198.68;1509796;94;21128;-56
2022/09/20 09:44:00;;;;;;;0.55;0.50;;;;;;;21.65;39.58;101205.89;1504444;94;21057;-55
2022/09/20 09:46:32;;;;;;;1.45;0.40;;;;;;;21.72;39.19;101201.44;1497836;95;21566;-56
2022/09/20 09:49:07;;;;;;;;;;;;;;;21.78;38.95;101205.54;1457234;97;21585;-54
2022/09/20 09:51:35;;;;;;;0.45;0.40;;;;;;;21.85;38.22;101201.58;1454944;97;20161;-52
2022/09/20 09:54:02;;;;;;;0.40;0.30;;;;;;;21.87;38.15;101208.97;1455611;97;21143;-53
2022/09/20 09:56:37;;;;;;;0.30;0.30;;;;;;;21.91;38.22;101205.18;1456911;97;21128;-52
2022/09/20 09:59:28;;;;;;;0.20;0.20;;;;;;;21.97;38.29;101206.13;1454004;95;21150;-55
2022/09/20 10:02:23;;;;;;;2.45;0.30;;;;;;;22.03;37.98;101200.45;1496063;93;21072;-60
2022/09/20 10:04:55;;;;;;;1.32;0.45;;;;;;;22.11;38.07;101206.15;1505800;93;21118;-58
2022/09/20 10:07:59;;;;;;;2.40;0.53;;;;;;;22.16;37.84;101201.39;1502759;94;21588;-55
2022/09/20 10:10:38;;;;;;;0.23;0.10;;;;;;;22.21;38.07;101191.84;1515924;92;21046;-54
2022/09/20 10:13:23;;;;;;;0.20;0.20;;;;;;;22.28;37.70;101197.97;1521974;92;21172;-53
2022/09/20 10:16:05;;;;;;;0.35;0.28;;;;;;;22.29;37.04;101183.78;1474857;96;21115;-53
2022/09/20 10:18:50;;;;;;;0.40;0.20;;;;;;;22.30;36.92;101185.47;1477876;96;21072;-53
2022/09/20 10:21:43;;;;;;;0.62;0.20;;;;;;;22.29;36.83;101187.76;1469248;96;21632;-58
2022/09/20 10:24:29;;;;;;;0.20;0.20;;;;;;;22.30;36.93;101184.14;1476236;96;21131;-55
2022/09/20 10:27:10;;;;;;;0.10;0.10;;;;;;;22.32;36.38;101184.89;1451298;98;21115;-55
2022/09/20 10:30:03;;;;;;;0.20;0.20;;;;;;;22.35;36.52;101174.58;1446084;98;21127;-56
2022/09/20 10:32:54;;;;;;;0.40;0.40;;;;;;;22.38;36.61;101183.18;1445548;98;21119;-52
2022/09/20 10:35:46;;;;;;;0.37;0.37;;;;;;;22.39;37.77;101176.94;1427578;100;21151;-52
2022/09/20 10:38:19;;;;;;;1.67;0.30;;;;;;;22.40;37.65;101176.47;1437660;98;21238;-55
2022/09/20 10:44:25;;;;;;;0.33;0.20;;;;;;;22.37;38.17;101167.38;1475341;95;21121;-56
2022/09/20 10:47:18;;;;;;;2.52;0.40;;;;;;;22.34;38.38;101159.13;1473543;93;21077;-55
2022/09/20 10:50:20;;;;;;;0.20;0.20;;;;;;;22.39;38.12;101161.03;1519909;93;21145;-56
2022/09/20 10:53:26;;;;;;;0.30;0.30;;;;;;;22.41;37.81;101161.78;1663099;83;21159;-54
2022/09/20 10:56:28;;;;;;;0.85;0.10;;;;;;;22.42;38.03;101163.47;1647719;85;21538;-53
2022/09/20 10:59:01;;;;;;;;;;;;;;;22.44;36.67;101158.09;1658503;85;21071;-54
2022/09/20 11:02:10;;;;;;;0.62;0.33;;;;;;;22.47;35.28;101160.06;1674687;83;20411;-54
2022/09/20 11:05:27;;;;;;;0.60;0.35;;;;;;;22.52;35.14;101167.23;1661162;85;21092;-56
2022/09/20 11:08:13;;;;;;;0.10;0.10;;;;;;;22.59;35.09;101165.06;1645072;85;21042;-56
2022/09/20 11:10:53;;;;;;;0.62;0.20;;;;;;;22.68;34.75;101154.34;1647165;86;21609;-53
2022/09/20 11:13:50;;;;;;;0.90;0.30;;;;;;;22.75;34.47;101154.33;1718869;82;21019;-52
2022/09/20 11:16:27;;;;;;;0.25;0.25;;;;;;;22.82;34.23;101155.60;1722496;82;21030;-54
2022/09/20 11:18:59;;;;;;;0.30;0.30;;;;;;;22.88;32.85;101153.41;1720851;82;21102;-53
2022/09/20 11:21:37;;;;;;;0.60;0.35;;;;;;;22.88;32.84;101152.55;1724805;82;20991;-52
2022/09/20 11:24:27;;;;;;;0.37;0.37;;;;;;;22.90;33.44;101148.84;1728801;82;21056;-53
2022/09/20 11:26:57;;;;;;;0.62;0.50;;;;;;;22.97;33.13;101146.64;1710551;82;21018;-55
2022/09/20 11:29:38;;;;;;;0.20;0.20;;;;;;;23.04;32.77;101142.63;1734476;82;21144;-53
2022/09/20 11:32:16;;;;;;;0.65;0.28;;;;;;;23.08;32.49;101145.45;1710367;83;21018;-53
2022/09/20 11:35:00;;;;;;;0.30;0.30;;;;;;;23.10;32.61;101150.18;1720444;82;21033;-58
2022/09/20 11:37:32;;;;;;;0.60;0.40;;;;;;;23.10;32.47;101150.18;1689761;84;21050;-57
2022/09/20 11:40:30;;;;;;;0.30;0.30;;;;;;;23.10;32.69;101158.14;1725767;82;21002;-56
2022/09/20 11:42:59;;;;;;;0.10;0.10;;;;;;;23.09;32.54;101157.28;1670760;85;21090;-55
2022/09/20 11:45:26;;;;;;;0.57;0.20;;;;;;;23.10;32.36;101152.84;1669801;85;21045;-52
2022/09/20 11:47:58;;;;;;;0.40;0.20;;;;;;;23.12;32.05;101156.23;1663930;85;21038;-55
2022/09/20 11:50:48;;;;;;;0.10;0.10;;;;;;;23.13;32.27;101153.94;1654901;85;21089;-53
2022/09/20 11:53:36;;;;;;;0.10;0.10;;;;;;;23.15;32.16;101156.02;1640748;86;21037;-53
2022/09/20 11:56:19;;;;;;;0.72;0.20;;;;;;;23.17;32.37;101158.09;1655239;86;21011;-54
2022/09/20 11:58:58;;;;;;;0.20;0.10;;;;;;;23.18;31.31;101158.48;1629238;86;21037;-53
2022/09/20 12:01:42;;;;;;;0.82;0.20;;;;;;;23.14;31.85;101149.84;1630921;87;21065;-53
2022/09/20 12:04:12;;;;;;;0.37;0.15;;;;;;;23.16;32.38;101159.06;1629215;87;21614;-55
2022/09/20 12:06:41;;;;;;;0.53;0.40;;;;;;;23.16;31.95;101163.04;1583730;89;21125;-53
2022/09/20 12:09:27;;;;;;;0.20;0.20;;;;;;;23.16;32.19;101160.38;1583395;89;21055;-55
2022/09/20 12:11:54;;;;;;;0.20;0.20;;;;;;;23.16;32.22;101163.04;1481744;96;21140;-53
2022/09/20 12:14:26;;;;;;;2.33;0.20;;;;;;;23.14;32.30;101162.29;1478524;96;21565;-55
2022/09/20 12:16:54;;;;;;;0.30;0.20;;;;;;;23.14;32.78;101172.91;1482107;94;21671;-56
2022/09/20 12:19:32;;;;;;;0.30;0.20;;;;;;;23.15;32.55;101171.94;1479030;96;21100;-61
2022/09/20 12:22:04;;;;;;;1.05;0.28;;;;;;;23.13;31.76;101175.17;1479392;96;21097;-55
2022/09/20 12:24:40;;;;;;;0.90;0.28;;;;;;;23.10;32.02;101171.42;1476439;96;21172;-54
2022/09/20 12:27:28;;;;;;;0.40;0.20;;;;;;;23.09;31.99;101172.35;1476465;96;21105;-56
2022/09/20 12:30:09;;;;;;;0.15;0.15;;;;;;;23.07;32.12;101175.59;1476469;96;21612;-56
2022/09/20 12:32:56;;;;;;;0.10;0.10;;;;;;;23.02;31.58;101185.67;1469097;95;21103;-55
2022/09/20 12:35:51;;;;;;;1.62;0.20;;;;;;;23.01;31.26;101183.96;1469772;96;21150;-57
2022/09/20 12:38:28;;;;;;;0.20;0.20;;;;;;;22.97;30.94;101189.10;1459416;97;21126;-52
2022/09/20 12:41:10;;;;;;;0.20;0.13;;;;;;;22.95;31.27;101198.97;1479304;97;21449;-60
2022/09/20 12:44:06;;;;;;;1.15;0.40;;;;;;;22.94;30.55;101199.91;1483764;95;21109;-55
2022/09/20 12:46:40;;;;;;;0.60;0.30;;;;;;;22.92;30.33;101203.13;1488021;95;21594;-56